Time;durP1;ratioP1;P1;durP2;ratioP2;P2;SDS_P1;SDS_P2;PMS_P1;PMS_P2;Temp;Humidity;BMP_temperature;BMP_pressure;BME280_temperature;BME280_humidity;BME280_pressure;Samples;Min_cycle;Max_cycle;Signal;HPM_P1;HPM_P2
2022/11/30 00:00:19;;;;;;;66.00;29.38;;;6.80;99.90;;;;;;5031164;28;20060;-81
2022/11/30 00:02:45;;;;;;;69.05;29.83;;;6.80;99.90;;;;;;5035840;28;20493;-81
2022/11/30 00:05:12;;;;;;;74.25;31.63;;;6.70;99.90;;;;;;5033339;28;20037;-82
2022/11/30 00:07:38;;;;;;;73.03;31.27;;;6.70;99.90;;;;;;5046417;28;20728;-81
2022/11/30 00:10:05;;;;;;;78.90;31.92;;;6.70;99.90;;;;;;5027488;28;20041;-84
2022/11/30 00:12:33;;;;;;;76.90;32.67;;;6.70;99.90;;;;;;5052840;28;20047;-82
2022/11/30 00:14:59;;;;;;;74.93;31.02;;;6.70;99.90;;;;;;5057125;28;20132;-82
2022/11/30 00:17:24;;;;;;;79.30;31.63;;;6.70;99.90;;;;;;5028225;28;20144;-82
2022/11/30 00:19:50;;;;;;;71.45;30.42;;;6.70;99.90;;;;;;5032025;28;20041;-82
2022/11/30 00:22:16;;;;;;;76.93;30.30;;;6.70;99.90;;;;;;5064024;28;20059;-83
2022/11/30 00:24:41;;;;;;;77.65;32.58;;;6.60;99.90;;;;;;5050023;28;20052;-82
2022/11/30 00:27:07;;;;;;;82.75;30.27;;;6.50;99.90;;;;;;5041730;28;20045;-81
2022/11/30 00:29:33;;;;;;;85.35;32.00;;;6.40;99.90;;;;;;5015515;28;20064;-82
2022/11/30 00:31:58;;;;;;;90.47;32.65;;;6.30;99.90;;;;;;5038704;28;20071;-82
2022/11/30 00:34:24;;;;;;;84.22;31.90;;;6.10;99.90;;;;;;5036048;28;20059;-82
2022/11/30 00:36:50;;;;;;;89.35;32.85;;;6.00;99.90;;;;;;5008658;28;20045;-82
2022/11/30 00:39:15;;;;;;;93.20;33.15;;;5.90;99.90;;;;;;5038151;28;20053;-82
2022/11/30 00:41:41;;;;;;;99.72;33.92;;;5.80;99.90;;;;;;5032873;28;20088;-83
2022/11/30 00:44:07;;;;;;;91.50;32.63;;;5.80;99.90;;;;;;5030197;28;20045;-82
2022/11/30 00:46:32;;;;;;;102.13;34.50;;;5.80;99.90;;;;;;5011934;28;20088;-82
2022/11/30 00:48:58;;;;;;;97.35;34.58;;;5.80;99.90;;;;;;5015821;28;20080;-82
2022/11/30 00:51:23;;;;;;;104.93;33.92;;;5.80;99.90;;;;;;5019747;28;20049;-83
2022/11/30 00:53:49;;;;;;;99.85;34.60;;;5.80;99.90;;;;;;5016702;28;20041;-82
2022/11/30 00:56:15;;;;;;;101.18;33.92;;;5.80;99.90;;;;;;5029044;28;20503;-82
2022/11/30 00:58:41;;;;;;;94.70;32.38;;;5.60;99.90;;;;;;5039070;28;20053;-86
2022/11/30 01:01:07;;;;;;;100.20;33.63;;;5.60;99.90;;;;;;5045615;28;20041;-82
2022/11/30 01:03:33;;;;;;;97.97;33.25;;;5.60;99.90;;;;;;5009028;28;20060;-82
2022/11/30 01:06:07;;;;;;;99.30;33.40;;;5.50;99.90;;;;;;5042029;28;20049;-82
2022/11/30 01:08:33;;;;;;;115.80;34.35;;;5.40;99.90;;;;;;5037016;28;20053;-82
2022/11/30 01:11:05;;;;;;;112.32;34.78;;;5.40;99.90;;;;;;5019992;28;20052;-82
2022/11/30 01:13:31;;;;;;;107.20;36.38;;;5.40;99.90;;;;;;5025742;28;20114;-81
2022/11/30 01:15:56;;;;;;;116.30;37.25;;;5.40;99.90;;;;;;5032440;28;20490;-81
2022/11/30 01:18:22;;;;;;;108.18;36.97;;;5.60;99.90;;;;;;5015892;28;20088;-83
2022/11/30 01:20:48;;;;;;;121.25;36.85;;;5.70;99.90;;;;;;5030574;28;20073;-82
2022/11/30 01:23:13;;;;;;;112.78;36.72;;;5.80;99.90;;;;;;5016661;28;20047;-82
2022/11/30 01:25:39;;;;;;;128.50;38.22;;;5.80;99.90;;;;;;5048534;28;20060;-82
2022/11/30 01:28:05;;;;;;;117.20;39.45;;;5.90;99.90;;;;;;5045507;28;20052;-85
2022/11/30 01:30:31;;;;;;;121.45;38.42;;;5.90;99.90;;;;;;5048289;28;20115;-82
2022/11/30 01:33:02;;;;;;;115.50;38.22;;;6.00;99.90;;;;;;5024306;28;20064;-82
2022/11/30 01:35:27;;;;;;;111.85;38.65;;;6.00;99.90;;;;;;5036643;28;20041;-81
2022/11/30 01:37:53;;;;;;;111.45;37.70;;;6.10;99.90;;;;;;5052522;28;20491;-82
2022/11/30 01:40:18;;;;;;;113.03;37.53;;;6.10;99.90;;;;;;5053428;28;20041;-83
2022/11/30 01:42:46;;;;;;;108.32;38.13;;;6.20;99.90;;;;;;5019915;28;20450;-83
2022/11/30 01:45:13;;;;;;;113.95;36.92;;;6.20;99.90;;;;;;5053446;28;20051;-82
2022/11/30 01:47:47;;;;;;;114.30;37.55;;;6.20;99.90;;;;;;5049364;28;20125;-84
2022/11/30 01:50:29;;;;;;;102.75;35.55;;;6.30;99.90;;;;;;5052911;28;20053;-82
2022/11/30 01:52:56;;;;;;;95.63;36.03;;;6.30;99.90;;;;;;5049331;28;20041;-82
2022/11/30 01:55:48;;;;;;;103.78;36.90;;;6.30;99.90;;;;;;5034188;28;20044;-84
2022/11/30 01:58:22;;;;;;;99.45;34.22;;;6.30;99.90;;;;;;4999009;28;20061;-82
2022/11/30 02:00:48;;;;;;;101.60;37.00;;;6.30;99.90;;;;;;5034588;28;20045;-82
2022/11/30 02:03:40;;;;;;;102.10;36.42;;;6.30;99.90;;;;;;5027447;28;20132;-82
2022/11/30 02:06:07;;;;;;;97.28;36.17;;;6.40;99.90;;;;;;5037789;28;20474;-81
2022/11/30 02:08:33;;;;;;;100.82;35.67;;;6.40;99.90;;;;;;5036459;28;20083;-82
2022/11/30 02:11:03;;;;;;;98.95;37.22;;;6.40;99.90;;;;;;5029337;28;20045;-82
2022/11/30 02:13:48;;;;;;;89.78;34.45;;;6.40;99.90;;;;;;5051787;28;20177;-82
2022/11/30 02:16:38;;;;;;;86.07;35.58;;;6.40;99.90;;;;;;5036057;28;20053;-83
2022/11/30 02:19:32;;;;;;;89.07;34.85;;;6.40;99.90;;;;;;5031246;28;20049;-82
2022/11/30 02:22:28;;;;;;;79.07;32.97;;;6.40;99.90;;;;;;5029544;28;20077;-83
2022/11/30 02:25:18;;;;;;;83.32;32.83;;;6.40;99.90;;;;;;5059055;28;20085;-88
2022/11/30 02:27:44;;;;;;;80.00;33.83;;;6.40;99.90;;;;;;5058205;28;20083;-82
2022/11/30 02:30:18;;;;;;;87.40;35.25;;;6.50;99.90;;;;;;5050234;28;20130;-83
2022/11/30 02:33:10;;;;;;;82.82;34.80;;;6.40;99.90;;;;;;5038076;28;20056;-80
2022/11/30 02:35:41;;;;;;;79.72;34.58;;;6.50;99.90;;;;;;5045130;28;20441;-81
2022/11/30 02:38:08;;;;;;;86.28;33.78;;;6.40;99.90;;;;;;5030393;28;20136;-81
2022/11/30 02:40:33;;;;;;;84.15;33.67;;;6.40;99.90;;;;;;5045624;28;20067;-83
2022/11/30 02:43:03;;;;;;;84.35;33.65;;;6.50;99.90;;;;;;5037070;28;20036;-82
2022/11/30 02:45:58;;;;;;;83.28;34.13;;;6.40;99.90;;;;;;5062324;28;20091;-81
2022/11/30 02:48:44;;;;;;;81.70;34.33;;;6.40;99.90;;;;;;5049644;28;20052;-83
2022/11/30 02:51:15;;;;;;;84.47;34.58;;;6.40;99.90;;;;;;5054203;28;20431;-82
2022/11/30 02:53:41;;;;;;;84.82;35.00;;;6.40;99.90;;;;;;5051139;28;20045;-83
2022/11/30 02:56:07;;;;;;;82.80;34.40;;;6.40;99.90;;;;;;5049981;28;20167;-82
2022/11/30 02:58:33;;;;;;;77.22;33.72;;;6.40;99.90;;;;;;5051851;28;20705;-82
2022/11/30 03:00:59;;;;;;;91.00;36.55;;;6.40;99.90;;;;;;5036287;28;20053;-86
2022/11/30 03:03:24;;;;;;;85.20;34.58;;;6.40;99.90;;;;;;5051937;28;20053;-82
2022/11/30 03:05:51;;;;;;;91.93;36.22;;;6.40;99.90;;;;;;5056400;28;20053;-81
2022/11/30 03:08:16;;;;;;;83.28;34.05;;;6.40;99.90;;;;;;5055557;28;20044;-81
2022/11/30 03:10:42;;;;;;;91.75;37.70;;;6.40;99.90;;;;;;5011233;28;20045;-82
2022/11/30 03:13:07;;;;;;;84.07;34.83;;;6.50;99.90;;;;;;5053152;28;20136;-81
2022/11/30 03:15:34;;;;;;;80.03;33.45;;;6.40;99.90;;;;;;5035842;28;20128;-81
2022/11/30 03:18:04;;;;;;;90.15;36.22;;;6.50;99.90;;;;;;5051515;28;20485;-84
2022/11/30 03:20:29;;;;;;;86.82;35.75;;;6.40;99.90;;;;;;5039239;28;20055;-82
2022/11/30 03:22:59;;;;;;;78.97;34.30;;;6.40;99.90;;;;;;5055619;28;20115;-82
2022/11/30 03:25:25;;;;;;;87.22;34.97;;;6.50;99.90;;;;;;5039567;28;20114;-82
2022/11/30 03:27:51;;;;;;;94.10;36.28;;;6.50;99.90;;;;;;5036003;28;20049;-81
2022/11/30 03:30:17;;;;;;;84.95;35.65;;;6.50;99.90;;;;;;5049126;28;20095;-81
2022/11/30 03:32:42;;;;;;;79.45;34.38;;;6.50;99.90;;;;;;5050426;28;20102;-82
2022/11/30 03:35:08;;;;;;;83.65;35.42;;;6.50;99.90;;;;;;5027362;28;20040;-82
2022/11/30 03:37:34;;;;;;;74.18;32.72;;;6.50;99.90;;;;;;5050875;28;20053;-82
2022/11/30 03:40:00;;;;;;;78.25;33.20;;;6.40;99.90;;;;;;5032284;28;20430;-82
2022/11/30 03:42:25;;;;;;;77.28;34.13;;;6.50;99.90;;;;;;5020604;28;20414;-82
2022/11/30 03:44:51;;;;;;;77.43;32.97;;;6.50;99.90;;;;;;5047759;28;20071;-82
2022/11/30 03:47:16;;;;;;;79.75;33.05;;;6.50;99.90;;;;;;5053157;28;20072;-82
2022/11/30 03:49:42;;;;;;;72.30;31.08;;;6.50;99.90;;;;;;5038893;28;20063;-83
2022/11/30 03:52:08;;;;;;;71.78;31.13;;;6.50;99.90;;;;;;5048818;28;20048;-84
2022/11/30 03:54:33;;;;;;;72.03;32.30;;;6.50;99.90;;;;;;5035874;28;20050;-84
2022/11/30 03:56:59;;;;;;;81.63;32.25;;;6.50;99.90;;;;;;5013022;28;20432;-82
2022/11/30 03:59:25;;;;;;;75.22;31.45;;;6.50;99.90;;;;;;5016609;28;20387;-82
2022/11/30 04:01:50;;;;;;;69.68;29.63;;;6.50;99.90;;;;;;5017057;28;20053;-82
2022/11/30 04:04:16;;;;;;;69.93;29.20;;;6.50;99.90;;;;;;5052979;28;20038;-82
2022/11/30 04:06:41;;;;;;;73.55;30.73;;;6.50;99.90;;;;;;5028225;28;20045;-82
2022/11/30 04:09:08;;;;;;;75.03;31.08;;;6.50;99.90;;;;;;5033044;28;20041;-83
2022/11/30 04:11:34;;;;;;;71.10;30.38;;;6.40;99.90;;;;;;5042789;28;20521;-81
2022/11/30 04:14:00;;;;;;;65.75;28.65;;;6.50;99.90;;;;;;5003930;28;20064;-81
2022/11/30 04:16:26;;;;;;;68.18;29.13;;;6.50;99.90;;;;;;5045479;28;20108;-81
2022/11/30 04:18:51;;;;;;;65.93;28.52;;;6.50;99.90;;;;;;5032960;28;20057;-82
2022/11/30 04:21:18;;;;;;;65.65;28.08;;;6.50;99.90;;;;;;5033401;28;20048;-82
2022/11/30 04:23:44;;;;;;;72.47;29.25;;;6.50;99.90;;;;;;5047480;28;20148;-81
2022/11/30 04:26:15;;;;;;;66.40;28.05;;;6.50;99.90;;;;;;5028306;28;20183;-81
2022/11/30 04:28:41;;;;;;;66.80;27.98;;;6.50;99.90;;;;;;5035631;28;20041;-81
2022/11/30 04:31:07;;;;;;;68.03;27.55;;;6.40;99.90;;;;;;5035234;28;20048;-80
2022/11/30 04:33:32;;;;;;;69.75;28.23;;;6.40;99.90;;;;;;5028223;28;20045;-81
2022/11/30 04:36:00;;;;;;;73.88;29.30;;;6.50;99.90;;;;;;5038659;28;20084;-81
2022/11/30 04:38:27;;;;;;;77.80;30.50;;;6.50;99.90;;;;;;5053901;28;20052;-81
2022/11/30 04:40:53;;;;;;;79.18;30.42;;;6.50;99.90;;;;;;5031873;28;20053;-81
2022/11/30 04:43:19;;;;;;;71.40;29.58;;;6.50;99.90;;;;;;5030148;28;20147;-81
2022/11/30 04:45:45;;;;;;;71.47;29.30;;;6.50;99.90;;;;;;5043440;28;20051;-81
2022/11/30 04:48:11;;;;;;;73.88;29.20;;;6.50;99.90;;;;;;5054571;28;20047;-81
2022/11/30 04:50:38;;;;;;;77.70;30.13;;;6.50;99.90;;;;;;5031906;28;20052;-81
2022/11/30 04:53:04;;;;;;;71.38;28.55;;;6.50;99.90;;;;;;5041704;28;20068;-82
2022/11/30 04:55:30;;;;;;;80.03;29.23;;;6.50;99.90;;;;;;5035812;28;20038;-82
2022/11/30 04:57:56;;;;;;;84.05;31.17;;;6.50;99.90;;;;;;5040309;28;20041;-81
2022/11/30 05:00:22;;;;;;;85.97;31.40;;;6.50;99.90;;;;;;5026605;28;20048;-81
2022/11/30 05:02:48;;;;;;;79.63;30.65;;;6.50;99.90;;;;;;5052943;28;20040;-81
2022/11/30 05:05:14;;;;;;;85.28;30.15;;;6.40;99.90;;;;;;5041130;28;20055;-85
2022/11/30 05:07:39;;;;;;;86.05;31.92;;;6.40;99.90;;;;;;5032911;28;20076;-81
2022/11/30 05:10:06;;;;;;;90.95;30.40;;;6.40;99.90;;;;;;5022137;28;20478;-81
2022/11/30 05:12:32;;;;;;;79.30;29.05;;;6.40;99.90;;;;;;5035008;28;20043;-81
2022/11/30 05:14:58;;;;;;;98.95;31.55;;;6.40;99.90;;;;;;5044779;28;20041;-82
2022/11/30 05:17:24;;;;;;;97.95;32.35;;;6.40;99.90;;;;;;5044631;28;20095;-84
2022/11/30 05:19:49;;;;;;;95.80;31.15;;;6.40;99.90;;;;;;5050796;28;20044;-81
2022/11/30 05:22:15;;;;;;;97.60;31.17;;;6.40;99.90;;;;;;5032755;28;20041;-81
2022/11/30 05:24:41;;;;;;;98.07;30.90;;;6.40;99.90;;;;;;5022184;28;20048;-81
2022/11/30 05:27:06;;;;;;;90.90;30.05;;;6.40;99.90;;;;;;5033270;28;20061;-82
2022/11/30 05:29:33;;;;;;;97.20;32.15;;;6.40;99.90;;;;;;5022095;28;20041;-82
2022/11/30 05:32:00;;;;;;;108.28;32.40;;;6.40;99.90;;;;;;5032956;28;20049;-82
2022/11/30 05:34:26;;;;;;;101.95;33.53;;;6.40;99.90;;;;;;5045953;28;20041;-82
2022/11/30 05:36:51;;;;;;;97.75;32.17;;;6.40;99.90;;;;;;5041349;28;20048;-81
2022/11/30 05:39:17;;;;;;;98.65;30.35;;;6.40;99.90;;;;;;5030931;28;20135;-82
2022/11/30 05:41:42;;;;;;;106.00;33.55;;;6.40;99.90;;;;;;5039989;28;20053;-83
2022/11/30 05:44:08;;;;;;;103.63;33.05;;;6.40;99.90;;;;;;5020229;28;20410;-82
2022/11/30 05:46:34;;;;;;;107.32;32.90;;;6.40;99.90;;;;;;5047681;28;20117;-82
2022/11/30 05:49:00;;;;;;;108.53;34.28;;;6.40;99.90;;;;;;5029477;28;20091;-82
2022/11/30 05:51:25;;;;;;;115.10;35.47;;;6.40;99.90;;;;;;5015578;28;20211;-83
2022/11/30 05:53:51;;;;;;;111.55;34.13;;;6.50;99.90;;;;;;5030510;28;20073;-82
2022/11/30 05:56:20;;;;;;;109.47;33.50;;;6.40;99.90;;;;;;5037942;28;20498;-82
2022/11/30 05:58:46;;;;;;;117.45;35.67;;;6.40;99.90;;;;;;5044226;28;20041;-81
2022/11/30 06:01:26;;;;;;;117.32;37.08;;;6.30;99.90;;;;;;5030872;28;20045;-81
2022/11/30 06:03:53;;;;;;;121.55;34.40;;;6.40;99.90;;;;;;5026683;28;20041;-82
2022/11/30 06:06:19;;;;;;;123.20;35.05;;;6.30;99.90;;;;;;5029815;28;20045;-82
2022/11/30 06:08:46;;;;;;;131.65;36.70;;;6.40;99.90;;;;;;5034407;28;20200;-81
2022/11/30 06:11:12;;;;;;;122.70;35.58;;;6.40;99.90;;;;;;5013009;28;20053;-80
2022/11/30 06:13:39;;;;;;;108.20;35.22;;;6.30;99.90;;;;;;5025357;28;20087;-81
2022/11/30 06:16:05;;;;;;;117.80;33.38;;;6.30;99.90;;;;;;5028453;28;20045;-81
2022/11/30 06:18:31;;;;;;;112.43;33.53;;;6.30;99.90;;;;;;5041100;28;20053;-81
2022/11/30 06:21:05;;;;;;;110.53;34.42;;;6.30;99.90;;;;;;5016985;28;20045;-81
2022/11/30 06:23:31;;;;;;;106.78;32.22;;;6.30;99.90;;;;;;5033092;28;20053;-81
2022/11/30 06:25:57;;;;;;;108.40;31.33;;;6.30;99.90;;;;;;5044446;28;20657;-81
2022/11/30 06:28:23;;;;;;;97.03;32.15;;;6.30;99.90;;;;;;5036170;28;20064;-82
2022/11/30 06:30:50;;;;;;;110.47;34.47;;;6.30;99.90;;;;;;5053254;28;20045;-81
2022/11/30 06:33:15;;;;;;;109.05;33.20;;;6.30;99.90;;;;;;5051294;28;20183;-82
2022/11/30 06:35:47;;;;;;;102.45;31.25;;;6.20;99.90;;;;;;5034631;28;20115;-81
2022/11/30 06:38:13;;;;;;;104.88;31.63;;;6.30;99.90;;;;;;5035386;28;20140;-83
2022/11/30 06:40:39;;;;;;;94.47;31.20;;;6.20;99.90;;;;;;5055871;28;20135;-82
2022/11/30 06:43:04;;;;;;;83.57;30.27;;;6.20;99.90;;;;;;5039857;28;20041;-81
2022/11/30 06:45:30;;;;;;;86.32;29.05;;;6.20;99.90;;;;;;5030945;28;20041;-84
2022/11/30 06:47:56;;;;;;;79.30;28.85;;;6.20;99.90;;;;;;5032127;28;20052;-82
2022/11/30 06:50:22;;;;;;;72.93;28.13;;;6.30;99.90;;;;;;5032759;28;20148;-82
2022/11/30 06:52:48;;;;;;;69.85;27.58;;;6.20;99.90;;;;;;4999153;28;20139;-82
2022/11/30 06:55:14;;;;;;;70.70;26.80;;;6.20;99.90;;;;;;5032696;28;20072;-84
2022/11/30 06:57:39;;;;;;;65.57;25.73;;;6.20;99.90;;;;;;5059968;28;20056;-82
2022/11/30 07:00:07;;;;;;;64.75;25.98;;;6.10;99.90;;;;;;5052450;28;20049;-84
2022/11/30 07:02:32;;;;;;;61.63;26.35;;;6.20;99.90;;;;;;5071872;28;20061;-88
2022/11/30 07:04:58;;;;;;;70.57;26.70;;;6.20;99.90;;;;;;5056382;28;20433;-81
2022/11/30 07:07:24;;;;;;;67.13;26.40;;;6.10;99.90;;;;;;5062656;28;20053;-83
2022/11/30 07:09:49;;;;;;;60.75;25.38;;;6.10;99.90;;;;;;5055110;28;20097;-80
2022/11/30 07:12:15;;;;;;;61.50;25.40;;;6.10;99.90;;;;;;5035420;28;20470;-79
2022/11/30 07:14:41;;;;;;;58.80;25.52;;;6.10;99.90;;;;;;5045889;28;20042;-80
2022/11/30 07:17:07;;;;;;;56.53;24.80;;;6.10;99.90;;;;;;5042481;28;20041;-80
2022/11/30 07:19:33;;;;;;;58.90;24.90;;;6.10;99.90;;;;;;5033568;28;20049;-81
2022/11/30 07:21:59;;;;;;;59.03;24.02;;;6.10;99.90;;;;;;5050277;28;20059;-82
2022/11/30 07:27:08;;;;;;;52.72;23.95;;;6.10;99.90;;;;;;5016688;28;20058;-81
2022/11/30 07:29:34;;;;;;;51.22;22.88;;;6.10;99.90;;;;;;5035593;28;20040;-81
2022/11/30 07:32:00;;;;;;;50.92;23.48;;;6.00;99.90;;;;;;5048004;28;20536;-80
2022/11/30 07:34:26;;;;;;;46.10;21.35;;;6.00;99.90;;;;;;5050116;28;20041;-83
2022/11/30 07:36:51;;;;;;;47.03;22.08;;;6.00;99.90;;;;;;5002350;28;20076;-80
2022/11/30 07:39:17;;;;;;;49.42;22.02;;;6.00;99.90;;;;;;5037564;28;20063;-81
2022/11/30 07:41:43;;;;;;;51.45;22.35;;;6.00;99.90;;;;;;5033064;28;20073;-82
2022/11/30 07:44:10;;;;;;;47.92;22.98;;;6.00;99.90;;;;;;5035963;28;20128;-82
2022/11/30 07:46:37;;;;;;;45.25;21.60;;;6.00;99.90;;;;;;5029593;28;20056;-81
2022/11/30 07:49:04;;;;;;;45.47;21.20;;;6.00;99.90;;;;;;5029030;28;20061;-81
2022/11/30 07:51:30;;;;;;;44.38;20.00;;;6.00;99.90;;;;;;5030373;28;20053;-81
2022/11/30 07:53:56;;;;;;;42.75;20.23;;;6.00;99.90;;;;;;5044251;28;20105;-80
2022/11/30 07:56:23;;;;;;;43.20;20.70;;;6.00;99.90;;;;;;5040544;28;20049;-83
2022/11/30 07:58:50;;;;;;;39.63;19.77;;;6.00;99.90;;;;;;5044753;28;20084;-80
2022/11/30 08:01:21;;;;;;;31.58;17.95;;;6.00;99.90;;;;;;5038249;28;20123;-80
2022/11/30 08:03:47;;;;;;;32.30;18.65;;;6.00;99.90;;;;;;5033446;28;20040;-80
2022/11/30 08:06:19;;;;;;;30.63;17.75;;;6.00;99.90;;;;;;5042268;28;20111;-81
2022/11/30 08:08:46;;;;;;;30.45;17.75;;;6.10;99.90;;;;;;5040437;28;20037;-80
2022/11/30 08:11:14;;;;;;;32.67;19.02;;;6.00;99.90;;;;;;5027280;28;20049;-80
2022/11/30 08:13:40;;;;;;;29.63;18.35;;;6.00;99.90;;;;;;5055353;28;20137;-81
2022/11/30 08:16:14;;;;;;;31.95;18.75;;;6.00;99.90;;;;;;5037413;28;20200;-81
2022/11/30 08:18:41;;;;;;;30.85;18.05;;;6.00;99.90;;;;;;5039796;28;20087;-81
2022/11/30 08:21:09;;;;;;;29.65;18.00;;;6.00;99.90;;;;;;5039678;28;20048;-81
2022/11/30 08:23:38;;;;;;;30.13;18.42;;;6.00;99.90;;;;;;5050775;28;20045;-83
2022/11/30 08:26:05;;;;;;;32.33;17.42;;;6.00;99.90;;;;;;5037389;28;20041;-81
2022/11/30 08:28:32;;;;;;;31.95;18.90;;;6.00;99.90;;;;;;5045922;28;20056;-81
2022/11/30 08:31:00;;;;;;;28.73;18.13;;;6.00;99.90;;;;;;5047411;28;20056;-81
2022/11/30 08:33:25;;;;;;;31.10;19.58;;;6.00;99.90;;;;;;5027147;28;20140;-81
2022/11/30 08:35:51;;;;;;;31.42;18.40;;;6.00;99.90;;;;;;5036602;28;20619;-80
2022/11/30 08:38:17;;;;;;;29.02;17.73;;;6.10;99.90;;;;;;5012352;28;20049;-80
2022/11/30 08:40:43;;;;;;;30.15;17.15;;;6.00;99.90;;;;;;5048599;28;20160;-84
2022/11/30 08:43:08;;;;;;;28.77;17.95;;;6.10;99.90;;;;;;5049882;28;20097;-80
2022/11/30 08:45:34;;;;;;;32.10;18.73;;;6.00;99.90;;;;;;5048038;28;20053;-78
2022/11/30 08:48:00;;;;;;;31.95;18.30;;;6.00;99.90;;;;;;5049941;28;20394;-80
2022/11/30 08:50:26;;;;;;;30.58;19.02;;;6.10;99.90;;;;;;5035651;28;20048;-81
2022/11/30 08:52:54;;;;;;;28.42;18.83;;;6.10;99.90;;;;;;5047988;28;20482;-80
2022/11/30 08:55:19;;;;;;;27.83;18.25;;;6.10;99.90;;;;;;5050078;28;20041;-82
2022/11/30 08:57:45;;;;;;;27.42;18.40;;;6.20;99.90;;;;;;5039740;28;21265;-83
2022/11/30 09:00:11;;;;;;;32.38;18.83;;;6.10;99.90;;;;;;5024602;28;20124;-82
2022/11/30 09:02:37;;;;;;;29.60;19.23;;;6.10;99.90;;;;;;5043909;28;20037;-84
2022/11/30 09:05:03;;;;;;;28.08;18.05;;;6.10;99.90;;;;;;5023617;28;20049;-82
2022/11/30 09:07:29;;;;;;;31.77;19.02;;;6.20;99.90;;;;;;5014963;28;20060;-81
2022/11/30 09:09:54;;;;;;;30.42;18.88;;;6.10;99.90;;;;;;5029066;28;20048;-82
2022/11/30 09:12:20;;;;;;;31.08;18.88;;;6.10;99.90;;;;;;4988497;28;20132;-81
2022/11/30 09:14:47;;;;;;;29.73;18.80;;;6.10;99.90;;;;;;5040802;28;20064;-81
2022/11/30 09:17:12;;;;;;;30.35;18.63;;;6.10;99.90;;;;;;5047375;28;20040;-80
2022/11/30 09:19:39;;;;;;;31.27;19.17;;;6.10;99.90;;;;;;5015070;28;20059;-81
2022/11/30 09:22:04;;;;;;;30.85;18.15;;;6.10;99.90;;;;;;5032509;28;20098;-81
2022/11/30 09:24:30;;;;;;;34.75;19.27;;;6.20;99.90;;;;;;5032514;28;20045;-81
2022/11/30 09:26:56;;;;;;;31.15;19.48;;;6.20;99.90;;;;;;5021958;28;20095;-81
2022/11/30 09:29:22;;;;;;;31.73;19.40;;;6.30;99.90;;;;;;5030177;28;20051;-81
2022/11/30 09:31:48;;;;;;;29.65;18.40;;;6.30;99.90;;;;;;5037137;28;20068;-81
2022/11/30 09:34:14;;;;;;;31.80;19.27;;;6.30;99.90;;;;;;5030707;28;20885;-83
2022/11/30 09:36:39;;;;;;;33.17;19.13;;;6.30;99.90;;;;;;5042153;28;20116;-81
2022/11/30 09:39:06;;;;;;;32.00;18.90;;;6.40;99.90;;;;;;5024597;28;20049;-81
2022/11/30 09:42:01;;;;;;;35.03;19.40;;;6.40;99.90;;;;;;5055085;28;20079;-80
2022/11/30 09:45:06;;;;;;;34.63;19.60;;;6.50;99.90;;;;;;5050927;28;20040;-81
2022/11/30 09:47:42;;;;;;;30.52;18.60;;;6.50;99.90;;;;;;4981668;28;20145;-80
2022/11/30 09:50:17;;;;;;;32.00;18.75;;;6.40;99.90;;;;;;5035641;28;20061;-80
2022/11/30 09:52:48;;;;;;;36.47;19.98;;;6.40;99.90;;;;;;5046583;28;20514;-83
2022/11/30 09:55:23;;;;;;;38.53;20.60;;;6.50;99.90;;;;;;5050352;28;20075;-82
2022/11/30 09:57:53;;;;;;;37.83;21.02;;;6.50;99.90;;;;;;5033608;28;20123;-81
2022/11/30 10:00:21;;;;;;;37.42;20.55;;;6.50;99.90;;;;;;5045416;28;20178;-81
2022/11/30 10:02:49;;;;;;;41.72;22.05;;;6.60;99.90;;;;;;5052272;28;20041;-81
2022/11/30 10:05:36;;;;;;;40.20;21.85;;;6.60;99.90;;;;;;5048836;28;20513;-81
2022/11/30 10:08:24;;;;;;;42.17;22.77;;;6.60;99.90;;;;;;5033941;28;20066;-81
2022/11/30 10:11:10;;;;;;;43.95;23.42;;;6.70;99.90;;;;;;5035634;28;20083;-83
2022/11/30 10:14:11;;;;;;;49.63;23.08;;;6.80;99.90;;;;;;4987283;28;20087;-80
2022/11/30 10:17:19;;;;;;;51.75;24.90;;;6.70;99.90;;;;;;5053265;28;20055;-80
2022/11/30 10:20:21;;;;;;;51.95;24.38;;;6.70;99.90;;;;;;4990668;28;20049;-81
2022/11/30 10:23:11;;;;;;;51.30;24.77;;;6.70;99.90;;;;;;5041074;28;20502;-81
2022/11/30 10:25:56;;;;;;;49.17;24.27;;;6.80;99.90;;;;;;5051498;28;20056;-82
2022/11/30 10:28:42;;;;;;;50.33;25.95;;;6.90;99.90;;;;;;5055963;28;20068;-80
2022/11/30 10:31:19;;;;;;;49.22;26.40;;;6.90;99.90;;;;;;5065894;28;20073;-80
2022/11/30 10:33:48;;;;;;;60.63;31.15;;;7.00;99.90;;;;;;5033441;28;20045;-81
2022/11/30 10:36:37;;;;;;;46.03;25.70;;;6.90;99.90;;;;;;5041328;28;20041;-82
2022/11/30 10:39:43;;;;;;;45.42;24.45;;;7.00;99.90;;;;;;5030059;28;20069;-85
2022/11/30 10:42:20;;;;;;;48.72;24.88;;;6.90;99.90;;;;;;5025719;28;20062;-81
2022/11/30 10:44:59;;;;;;;44.30;25.30;;;6.80;99.90;;;;;;5043744;28;20057;-82
2022/11/30 10:47:32;;;;;;;48.95;24.25;;;6.80;99.90;;;;;;5027734;28;20056;-83
2022/11/30 10:49:58;;;;;;;48.45;24.63;;;6.80;99.90;;;;;;5049334;28;20127;-82
2022/11/30 10:52:28;;;;;;;46.85;25.75;;;6.80;99.90;;;;;;5028820;28;20100;-79
2022/11/30 10:54:55;;;;;;;41.88;23.90;;;6.80;99.90;;;;;;5034021;28;20495;-83
2022/11/30 10:57:24;;;;;;;46.15;24.10;;;6.80;99.90;;;;;;5033159;28;20055;-81
2022/11/30 10:59:56;;;;;;;42.33;23.88;;;6.80;99.90;;;;;;5032010;28;20475;-80
2022/11/30 11:02:40;;;;;;;46.28;24.27;;;6.80;99.90;;;;;;5050553;28;20048;-80
2022/11/30 11:05:21;;;;;;;42.55;23.85;;;6.80;99.90;;;;;;5033043;28;20041;-84
2022/11/30 11:07:51;;;;;;;46.17;24.65;;;6.90;99.90;;;;;;5049454;28;20071;-82
2022/11/30 11:10:32;;;;;;;44.38;23.55;;;6.90;99.90;;;;;;5063545;28;20428;-80
2022/11/30 11:12:58;;;;;;;42.47;24.50;;;6.90;99.90;;;;;;5058218;28;20122;-85
2022/11/30 11:15:33;;;;;;;46.30;25.35;;;6.90;99.90;;;;;;5055064;28;20490;-82
2022/11/30 11:18:20;;;;;;;51.50;26.67;;;6.90;99.90;;;;;;5049564;28;20115;-81
2022/11/30 11:20:46;;;;;;;46.78;24.50;;;6.90;99.90;;;;;;5049048;28;20052;-82
2022/11/30 11:23:33;;;;;;;46.85;24.30;;;6.90;99.90;;;;;;5034232;28;20137;-82
2022/11/30 11:25:59;;;;;;;45.35;24.92;;;7.00;99.90;;;;;;5064312;28;20049;-83
2022/11/30 11:28:25;;;;;;;45.85;25.85;;;7.00;99.90;;;;;;5061067;28;20048;-87
2022/11/30 11:30:53;;;;;;;44.60;23.95;;;7.00;99.90;;;;;;5042961;28;20123;-82
2022/11/30 11:33:28;;;;;;;44.55;25.95;;;7.00;99.90;;;;;;5056684;28;20194;-82
2022/11/30 11:36:06;;;;;;;43.90;24.13;;;7.00;99.90;;;;;;5054243;28;20045;-85
2022/11/30 11:38:43;;;;;;;39.78;23.98;;;7.10;99.90;;;;;;5051761;28;20144;-81
2022/11/30 11:41:18;;;;;;;40.83;22.80;;;7.10;99.90;;;;;;5046701;28;20056;-85
2022/11/30 11:44:05;;;;;;;41.28;24.00;;;7.10;99.90;;;;;;5032497;28;20083;-79
2022/11/30 11:46:37;;;;;;;41.58;24.15;;;7.10;99.90;;;;;;5035553;28;20666;-82
2022/11/30 11:49:17;;;;;;;37.40;23.67;;;7.10;99.90;;;;;;5048578;28;20595;-81
2022/11/30 11:51:44;;;;;;;40.67;22.65;;;7.10;99.90;;;;;;5049758;28;20053;-81
2022/11/30 11:54:52;;;;;;;37.17;23.38;;;7.10;99.90;;;;;;5031886;28;20502;-81
2022/11/30 11:57:20;;;;;;;;;;;7.10;99.90;;;;;;5008053;28;20045;-80
2022/11/30 12:00:00;;;;;;;38.83;22.77;;;7.00;97.20;;;;;;5039869;28;20386;-82
2022/11/30 12:02:57;;;;;;;39.10;24.85;;;7.00;99.90;;;;;;5044302;28;20045;-83
2022/11/30 12:05:42;;;;;;;40.78;25.45;;;7.00;99.90;;;;;;5045723;28;20126;-81
2022/11/30 12:08:32;;;;;;;43.92;24.63;;;7.00;99.90;;;;;;5025987;28;20095;-80
2022/11/30 12:11:08;;;;;;;40.30;23.80;;;7.00;99.90;;;;;;5052920;28;20049;-80
2022/11/30 12:13:38;;;;;;;;;;;7.00;99.90;;;;;;5042759;28;20124;-79
2022/11/30 12:16:19;;;;;;;45.22;25.20;;;7.00;99.90;;;;;;5045032;28;19924;-80
2022/11/30 12:19:20;;;;;;;40.28;24.25;;;7.00;99.90;;;;;;5037157;28;20109;-81
2022/11/30 12:22:03;;;;;;;46.25;25.48;;;7.10;99.90;;;;;;5052551;28;20556;-79
2022/11/30 12:24:31;;;;;;;43.80;25.55;;;7.00;99.90;;;;;;5055509;28;20129;-80
2022/11/30 12:27:17;;;;;;;46.67;25.33;;;7.00;99.90;;;;;;5030655;28;20425;-79
2022/11/30 12:29:52;;;;;;;51.08;28.35;;;6.90;99.90;;;;;;5046219;28;20041;-81
2022/11/30 12:32:27;;;;;;;51.05;26.02;;;6.90;99.90;;;;;;5033522;28;20140;-85
2022/11/30 12:34:55;;;;;;;49.25;27.85;;;6.90;99.90;;;;;;5047200;28;20033;-80
2022/11/30 12:37:30;;;;;;;49.63;27.02;;;7.00;99.90;;;;;;5048955;28;20045;-80
2022/11/30 12:40:01;;;;;;;47.58;25.83;;;7.00;99.90;;;;;;5033735;28;20088;-80
2022/11/30 12:42:48;;;;;;;44.38;25.30;;;7.10;99.90;;;;;;5033682;28;20049;-81
2022/11/30 12:45:20;;;;;;;48.75;26.13;;;7.20;99.90;;;;;;5051821;28;20045;-79
2022/11/30 12:48:06;;;;;;;50.60;25.95;;;7.30;99.90;;;;;;5041122;28;20041;-81
2022/11/30 12:50:38;;;;;;;43.05;24.20;;;7.30;99.90;;;;;;4992849;28;20053;-80
2022/11/30 12:53:22;;;;;;;47.83;26.30;;;7.40;99.90;;;;;;5040739;28;20053;-81